createdAt,value
2023-01-22T00:02:54.335Z,-1.48
2023-01-22T00:05:52.395Z,-1.36
2023-01-22T00:08:49.659Z,-1.34
2023-01-22T00:11:46.400Z,-1.33
2023-01-22T00:14:43.417Z,-1.46
2023-01-22T00:17:40.207Z,-1.46
2023-01-22T00:20:37.047Z,-1.35
2023-01-22T00:23:33.948Z,-1.41
2023-01-22T00:26:30.696Z,-1.27
2023-01-22T00:29:27.510Z,-1.42
2023-01-22T00:32:24.273Z,-1.33
2023-01-22T00:35:21.041Z,-1.37
2023-01-22T00:38:17.810Z,-1.45
2023-01-22T00:41:15.031Z,-1.32
2023-01-22T00:44:11.780Z,-1.35
2023-01-22T00:47:08.590Z,-1.32
2023-01-22T00:50:05.871Z,-1.40
2023-01-22T00:53:04.063Z,-1.44
2023-01-22T00:56:02.011Z,-1.47
2023-01-22T00:58:58.782Z,-1.50
2023-01-22T01:01:55.578Z,-1.46
2023-01-22T01:04:52.424Z,-1.42
2023-01-22T01:07:49.159Z,-1.41
2023-01-22T01:10:45.952Z,-1.40
2023-01-22T01:13:43.551Z,-1.37
2023-01-22T01:16:41.403Z,-1.53
2023-01-22T01:19:38.167Z,-1.47
2023-01-22T01:22:35.304Z,-1.42
2023-01-22T01:25:32.084Z,-1.49
2023-01-22T01:28:28.870Z,-1.48
2023-01-22T01:31:28.548Z,-1.50
2023-01-22T01:34:25.397Z,-1.50
2023-01-22T01:37:22.151Z,-1.47
2023-01-22T01:40:19.200Z,-1.51
2023-01-22T01:43:17.393Z,-1.53
2023-01-22T01:46:20.313Z,-1.52
2023-01-22T01:49:38.434Z,-1.50
2023-01-22T01:52:35.601Z,-1.57
2023-01-22T01:55:34.407Z,-1.59
2023-01-22T01:58:34.178Z,-1.57
2023-01-22T02:01:31.808Z,-1.55
2023-01-22T02:04:28.642Z,-1.55
2023-01-22T02:07:25.412Z,-1.60
2023-01-22T02:10:22.224Z,-1.57
2023-01-22T02:13:22.547Z,-1.52
2023-01-22T02:16:19.335Z,-1.62
2023-01-22T02:19:16.112Z,-1.62
2023-01-22T02:22:15.710Z,-1.60
2023-01-22T02:25:12.496Z,-1.57
2023-01-22T02:28:09.257Z,-1.64
2023-01-22T02:31:06.040Z,-1.60
2023-01-22T02:34:02.947Z,-1.61
2023-01-22T02:36:59.793Z,-1.56
2023-01-22T02:39:56.531Z,-1.56
2023-01-22T02:42:53.553Z,-1.57
2023-01-22T02:45:50.407Z,-1.60
2023-01-22T02:48:47.217Z,-1.58
2023-01-22T02:51:43.960Z,-1.60
2023-01-22T02:54:40.730Z,-1.56
2023-01-22T02:57:37.488Z,-1.55
2023-01-22T03:00:34.238Z,-1.60
2023-01-22T03:03:31.011Z,-1.53
2023-01-22T03:06:29.571Z,-1.59
2023-01-22T03:09:26.405Z,-1.63
2023-01-22T03:12:23.150Z,-1.62
2023-01-22T03:15:38.230Z,-1.56
2023-01-22T03:18:53.473Z,-1.55
2023-01-22T03:21:50.203Z,-1.56
2023-01-22T03:24:53.564Z,-1.54
2023-01-22T03:28:09.134Z,-1.58
2023-01-22T03:31:05.956Z,-1.54
2023-01-22T03:34:02.766Z,-1.57
2023-01-22T03:36:59.609Z,-1.67
2023-01-22T03:39:57.910Z,-1.62
2023-01-22T03:42:54.671Z,-1.60
2023-01-22T03:45:51.526Z,-1.64
2023-01-22T03:48:51.418Z,-1.67
2023-01-22T03:51:48.159Z,-1.72
2023-01-22T03:54:44.957Z,-1.63
2023-01-22T03:57:41.711Z,-1.62
2023-01-22T04:00:38.471Z,-1.70
2023-01-22T04:03:35.612Z,-1.53
2023-01-22T04:06:32.342Z,-1.55
2023-01-22T04:09:29.086Z,-1.52
2023-01-22T04:12:25.842Z,-1.57
2023-01-22T04:15:22.591Z,-1.50
2023-01-22T04:18:19.709Z,-1.51
2023-01-22T04:21:16.475Z,-1.58
2023-01-22T04:24:13.231Z,-1.56
2023-01-22T04:27:10.035Z,-1.61
2023-01-22T04:30:07.519Z,-1.62
2023-01-22T04:33:04.564Z,-1.56
2023-01-22T04:36:01.555Z,-1.65
2023-01-22T04:39:00.322Z,-1.70
2023-01-22T04:41:57.050Z,-1.66
2023-01-22T04:44:53.811Z,-1.60
2023-01-22T04:48:01.921Z,-1.62
2023-01-22T04:50:58.702Z,-1.43
2023-01-22T04:53:55.528Z,-1.49
2023-01-22T04:56:52.769Z,-1.59
2023-01-22T04:59:49.541Z,-1.56
2023-01-22T05:02:46.299Z,-1.47
2023-01-22T05:05:43.047Z,-1.46
2023-01-22T05:08:39.787Z,-1.59
2023-01-22T05:11:36.553Z,-1.60
2023-01-22T05:14:33.322Z,-1.46
2023-01-22T05:17:30.098Z,-1.62
2023-01-22T05:20:27.480Z,-1.51
2023-01-22T05:23:24.243Z,-1.52
2023-01-22T05:26:21.211Z,-1.53
2023-01-22T05:29:17.994Z,-1.49
2023-01-22T05:32:15.730Z,-1.57
2023-01-22T05:35:12.478Z,-1.57
2023-01-22T05:38:09.238Z,-1.44
2023-01-22T05:41:05.999Z,-1.50
2023-01-22T05:44:03.901Z,-1.52
2023-01-22T05:47:00.619Z,-1.57
2023-01-22T05:49:57.447Z,-1.61
2023-01-22T05:52:55.628Z,-1.58
2023-01-22T05:55:52.401Z,-1.55
2023-01-22T05:58:49.583Z,-1.60
2023-01-22T06:01:46.340Z,-1.64
2023-01-22T06:04:43.214Z,-1.63
2023-01-22T06:07:39.975Z,-1.59
2023-01-22T06:10:36.871Z,-1.57
2023-01-22T06:13:33.862Z,-1.57
2023-01-22T06:16:30.609Z,-1.55
2023-01-22T06:19:27.423Z,-1.45
2023-01-22T06:22:24.193Z,-1.42
2023-01-22T06:25:20.936Z,-1.54
2023-01-22T06:28:17.693Z,-1.53
2023-01-22T06:31:14.490Z,-1.45
2023-01-22T06:34:11.373Z,-1.40
2023-01-22T06:37:08.163Z,-1.51
2023-01-22T06:40:05.239Z,-1.50
2023-01-22T06:43:03.111Z,-1.49
2023-01-22T06:45:59.892Z,-1.51
2023-01-22T06:48:58.885Z,-1.53
2023-01-22T06:51:55.626Z,-1.38
2023-01-22T06:54:52.374Z,-1.47
2023-01-22T06:57:49.139Z,-1.42
2023-01-22T07:00:45.888Z,-1.49
2023-01-22T07:03:42.662Z,-1.49
2023-01-22T07:06:39.444Z,-1.45
2023-01-22T07:09:36.345Z,-1.46
2023-01-22T07:12:33.336Z,-1.50
2023-01-22T07:15:30.131Z,-1.48
2023-01-22T07:18:26.920Z,-1.47
2023-01-22T07:21:23.666Z,-1.42
2023-01-22T07:24:20.441Z,-1.41
2023-01-22T07:27:17.204Z,-1.40
2023-01-22T07:30:14.107Z,-1.45
2023-01-22T07:33:11.344Z,-1.45
2023-01-22T07:36:08.160Z,-1.45
2023-01-22T07:39:05.744Z,-1.47
2023-01-22T07:42:02.528Z,-1.41
2023-01-22T07:44:59.304Z,-1.36
2023-01-22T07:47:58.852Z,-1.35
2023-01-22T07:50:59.692Z,-1.36
2023-01-22T07:53:57.335Z,-1.38
2023-01-22T07:56:54.073Z,-1.36
2023-01-22T07:59:50.868Z,-1.38
2023-01-22T08:02:50.159Z,-1.36
2023-01-22T08:05:47.045Z,-1.30
2023-01-22T08:08:43.783Z,-1.35
2023-01-22T08:11:40.522Z,-1.28
2023-01-22T08:14:37.323Z,-1.32
2023-01-22T08:17:34.089Z,-1.25
2023-01-22T08:20:31.024Z,-1.24
2023-01-22T08:23:28.090Z,-1.19
2023-01-22T08:26:24.836Z,-1.10
2023-01-22T08:29:23.883Z,-1.24
2023-01-22T08:32:21.145Z,-1.30
2023-01-22T08:35:18.207Z,-1.17
2023-01-22T08:38:20.955Z,-1.13
2023-01-22T08:41:25.248Z,-1.12
2023-01-22T08:44:22.000Z,-1.06
2023-01-22T08:47:18.730Z,-1.11
2023-01-22T08:50:16.137Z,-1.03
2023-01-22T08:53:13.088Z,-0.79
2023-01-22T08:56:09.847Z,-0.92
2023-01-22T08:59:06.904Z,-0.99
2023-01-22T09:02:03.831Z,-0.95
2023-01-22T09:05:00.684Z,-0.75
2023-01-22T09:07:57.492Z,-0.89
2023-01-22T09:10:54.234Z,-0.95
2023-01-22T09:13:54.920Z,-0.79
2023-01-22T09:16:56.220Z,-0.66
2023-01-22T09:19:53.001Z,-0.86
2023-01-22T09:22:49.850Z,-0.66
2023-01-22T09:25:46.608Z,-0.76
2023-01-22T09:28:43.366Z,-0.79
2023-01-22T09:31:40.157Z,-0.60
2023-01-22T09:34:36.952Z,-0.75
2023-01-22T09:37:33.976Z,-0.69
2023-01-22T09:40:36.359Z,-0.78
2023-01-22T09:43:37.464Z,-0.52
2023-01-22T09:46:39.100Z,-0.42
2023-01-22T09:49:54.121Z,-0.55
2023-01-22T09:52:53.629Z,-0.78
2023-01-22T09:55:52.534Z,-0.59
2023-01-22T09:58:51.318Z,-0.65
2023-01-22T10:02:29.534Z,-0.57
2023-01-22T10:05:37.008Z,-0.74
2023-01-22T10:08:58.346Z,-0.62
2023-01-22T10:11:56.080Z,-0.54
2023-01-22T10:14:53.102Z,-0.40
2023-01-22T10:17:50.366Z,-0.34
2023-01-22T10:20:47.437Z,-0.26
2023-01-22T10:23:44.524Z,-0.36
2023-01-22T10:26:52.746Z,-0.29
2023-01-22T10:30:10.586Z,-0.31
2023-01-22T10:33:10.275Z,-0.15
2023-01-22T10:36:07.491Z,-0.26
2023-01-22T10:39:15.486Z,-0.12
2023-01-22T10:42:23.210Z,-0.12
2023-01-22T10:45:20.053Z,-0.09
2023-01-22T10:48:17.295Z,-0.13
2023-01-22T10:51:16.620Z,-0.29
2023-01-22T10:54:39.273Z,-0.33
2023-01-22T10:57:36.894Z,-0.32
2023-01-22T11:00:51.907Z,-0.26
2023-01-22T11:03:49.199Z,-0.40
2023-01-22T11:06:49.715Z,-0.59
2023-01-22T11:10:07.504Z,-0.16
2023-01-22T11:13:28.781Z,-0.21
2023-01-22T11:16:25.947Z,-0.49
2023-01-22T11:19:36.892Z,-0.42
2023-01-22T11:22:38.271Z,-0.33
2023-01-22T11:25:45.312Z,-0.22
2023-01-22T11:28:51.785Z,-0.39
2023-01-22T11:32:31.088Z,-0.24
2023-01-22T11:35:37.106Z,-0.31
2023-01-22T11:38:53.942Z,-0.29
2023-01-22T11:42:05.665Z,-0.17
2023-01-22T11:45:02.304Z,-0.03
2023-01-22T11:48:14.659Z,-0.06
2023-01-22T11:51:23.917Z,-0.06
2023-01-22T11:54:47.969Z,-0.09
2023-01-22T11:58:03.369Z,-0.09
2023-01-22T12:01:14.205Z,0.02
2023-01-22T12:04:32.952Z,-0.02
2023-01-22T12:07:42.097Z,-0.37
2023-01-22T12:11:08.243Z,-0.24
2023-01-22T12:14:19.996Z,-0.02
2023-01-22T12:17:29.638Z,-0.17
2023-01-22T12:20:47.419Z,-0.15
2023-01-22T12:23:56.042Z,-0.29
2023-01-22T12:27:06.353Z,-0.25
2023-01-22T12:30:17.892Z,-0.39
2023-01-22T12:33:19.028Z,-0.49
2023-01-22T12:36:21.926Z,-0.42
2023-01-22T12:39:39.399Z,-0.39
2023-01-22T12:42:44.305Z,-0.29
2023-01-22T12:45:53.833Z,-0.41
2023-01-22T12:49:05.564Z,-0.36
2023-01-22T12:52:02.292Z,-0.32
2023-01-22T12:54:59.944Z,-0.35
2023-01-22T12:57:57.290Z,-0.38
2023-01-22T13:01:09.160Z,-0.20
2023-01-22T13:04:07.667Z,-0.14
2023-01-22T13:07:25.801Z,-0.22
2023-01-22T13:10:24.098Z,-0.23
2023-01-22T13:13:31.743Z,-0.19
2023-01-22T13:16:32.685Z,-0.28
2023-01-22T13:19:35.872Z,-0.53
2023-01-22T13:22:33.885Z,-0.69
2023-01-22T13:25:32.865Z,-0.62
2023-01-22T13:28:30.256Z,-0.63
2023-01-22T13:31:27.294Z,-0.60
2023-01-22T13:34:24.495Z,-0.44
2023-01-22T13:37:23.249Z,-0.62
2023-01-22T13:40:20.102Z,-0.47
2023-01-22T13:43:19.643Z,-0.52
2023-01-22T13:46:16.509Z,-0.50
2023-01-22T13:49:24.199Z,-0.44
2023-01-22T13:52:21.264Z,-0.43
2023-01-22T13:55:21.122Z,-0.48
2023-01-22T13:58:46.527Z,-0.49
2023-01-22T14:01:44.734Z,-0.63
2023-01-22T14:04:41.524Z,-0.71
2023-01-22T14:07:38.881Z,-0.67
2023-01-22T14:10:35.742Z,-0.65
2023-01-22T14:13:39.846Z,-0.76
2023-01-22T14:16:41.351Z,-0.76
2023-01-22T14:19:38.131Z,-0.77
2023-01-22T14:22:34.874Z,-0.78
2023-01-22T14:25:31.894Z,-0.84
2023-01-22T14:28:29.902Z,-0.92
2023-01-22T14:31:26.703Z,-0.79
2023-01-22T14:34:23.471Z,-0.95
2023-01-22T14:37:21.083Z,-0.93
2023-01-22T14:40:19.385Z,-0.91
2023-01-22T14:43:16.361Z,-0.90
2023-01-22T14:46:13.085Z,-0.83
2023-01-22T14:49:09.867Z,-0.86
2023-01-22T14:52:06.595Z,-0.98
2023-01-22T14:55:04.162Z,-0.90
2023-01-22T14:58:01.757Z,-0.94
2023-01-22T15:00:58.576Z,-1.03
2023-01-22T15:03:55.363Z,-1.00
2023-01-22T15:06:52.114Z,-1.02
2023-01-22T15:09:48.894Z,-0.90
2023-01-22T15:12:48.144Z,-0.90
2023-01-22T15:15:44.902Z,-1.03
2023-01-22T15:18:41.736Z,-1.06
2023-01-22T15:21:38.549Z,-1.06
2023-01-22T15:24:35.905Z,-1.16
2023-01-22T15:27:32.695Z,-1.19
2023-01-22T15:30:30.043Z,-1.03
2023-01-22T15:33:26.828Z,-1.17
2023-01-22T15:36:24.020Z,-1.19
2023-01-22T15:39:20.796Z,-1.12
2023-01-22T15:42:17.964Z,-1.24
2023-01-22T15:45:14.725Z,-1.16
2023-01-22T15:48:14.064Z,-1.12
2023-01-22T15:51:18.205Z,-1.11
2023-01-22T15:54:25.800Z,-1.15
2023-01-22T15:57:22.722Z,-1.18
2023-01-22T16:00:23.439Z,-1.24
2023-01-22T16:03:20.276Z,-1.25
2023-01-22T16:06:22.703Z,-1.21
2023-01-22T16:09:19.529Z,-1.31
2023-01-22T16:12:16.406Z,-1.38
2023-01-22T16:15:13.231Z,-1.36
2023-01-22T16:18:09.977Z,-1.37
2023-01-22T16:21:07.691Z,-1.28
2023-01-22T16:24:05.115Z,-1.42
2023-01-22T16:27:01.859Z,-1.30
2023-01-22T16:29:58.749Z,-1.31
2023-01-22T16:32:55.590Z,-1.30
2023-01-22T16:36:01.183Z,-1.32
2023-01-22T16:38:57.976Z,-1.27
2023-01-22T16:41:54.762Z,-1.32
2023-01-22T16:44:51.585Z,-1.47
2023-01-22T16:47:48.376Z,-1.31
2023-01-22T16:50:45.141Z,-1.32
2023-01-22T16:53:41.904Z,-1.34
2023-01-22T16:56:38.664Z,-1.30
2023-01-22T16:59:37.397Z,-1.43
2023-01-22T17:02:34.216Z,-1.49
2023-01-22T17:05:30.942Z,-1.47
2023-01-22T17:08:28.203Z,-1.48
2023-01-22T17:11:24.935Z,-1.30
2023-01-22T17:14:23.811Z,-1.48
2023-01-22T17:17:20.551Z,-1.36
2023-01-22T17:20:20.040Z,-1.35
2023-01-22T17:23:16.989Z,-1.38
2023-01-22T17:26:15.278Z,-1.36
2023-01-22T17:29:13.621Z,-1.29
2023-01-22T17:32:10.377Z,-1.39
2023-01-22T17:35:07.484Z,-1.42
2023-01-22T17:38:04.345Z,-1.33
2023-01-22T17:41:09.120Z,-1.26
2023-01-22T17:44:05.873Z,-1.16
2023-01-22T17:47:03.396Z,-1.34
2023-01-22T17:50:00.169Z,-1.35
2023-01-22T17:52:57.183Z,-1.34
2023-01-22T17:55:53.931Z,-1.12
2023-01-22T17:58:54.048Z,-1.17
2023-01-22T18:01:50.899Z,-0.93
2023-01-22T18:04:47.874Z,-1.19
2023-01-22T18:07:44.655Z,-1.24
2023-01-22T18:10:41.398Z,-1.17
2023-01-22T18:13:38.687Z,-1.17
2023-01-22T18:16:38.345Z,-1.21
2023-01-22T18:19:35.091Z,-1.04
2023-01-22T18:22:33.429Z,-1.32
2023-01-22T18:25:30.173Z,-1.32
2023-01-22T18:28:28.396Z,-1.35
2023-01-22T18:31:26.209Z,-1.13
2023-01-22T18:34:23.068Z,-1.27
2023-01-22T18:37:19.860Z,-1.08
2023-01-22T18:40:16.823Z,-1.12
2023-01-22T18:43:13.719Z,-1.20
2023-01-22T18:46:12.618Z,-1.20
2023-01-22T18:49:16.220Z,-1.24
2023-01-22T18:52:13.711Z,-1.20
2023-01-22T18:55:10.877Z,-1.12
2023-01-22T18:58:14.067Z,-1.24
2023-01-22T19:01:17.224Z,-1.19
2023-01-22T19:04:20.410Z,-1.27
2023-01-22T19:07:17.155Z,-1.30
2023-01-22T19:10:14.119Z,-1.30
2023-01-22T19:13:12.081Z,-1.22
2023-01-22T19:16:11.738Z,-1.21
2023-01-22T19:19:11.386Z,-1.25
2023-01-22T19:22:08.252Z,-1.11
2023-01-22T19:25:06.779Z,-1.15
2023-01-22T19:28:03.616Z,-1.29
2023-01-22T19:31:00.557Z,-1.40
2023-01-22T19:33:57.821Z,-1.27
2023-01-22T19:36:57.013Z,-1.34
2023-01-22T19:39:53.756Z,-1.21
2023-01-22T19:42:50.509Z,-1.36
2023-01-22T19:45:47.246Z,-1.21
2023-01-22T19:48:44.218Z,-1.25
2023-01-22T19:51:41.004Z,-1.36
2023-01-22T19:54:42.958Z,-1.43
2023-01-22T19:57:39.723Z,-1.29
2023-01-22T20:00:36.629Z,-1.30
2023-01-22T20:03:33.910Z,-1.30
2023-01-22T20:06:30.668Z,-1.25
2023-01-22T20:09:28.184Z,-1.22
2023-01-22T20:12:24.932Z,-1.21
2023-01-22T20:15:22.066Z,-1.12
2023-01-22T20:18:19.318Z,-1.17
2023-01-22T20:21:17.540Z,-1.23
2023-01-22T20:24:14.415Z,-1.29
2023-01-22T20:27:11.850Z,-1.37
2023-01-22T20:30:11.709Z,-1.27
2023-01-22T20:33:11.104Z,-1.11
2023-01-22T20:36:10.854Z,-1.21
2023-01-22T20:39:07.648Z,-1.18
2023-01-22T20:42:04.397Z,-1.25
2023-01-22T20:45:01.330Z,-1.30
2023-01-22T20:47:58.104Z,-1.31
2023-01-22T20:50:54.894Z,-1.37
2023-01-22T20:53:53.168Z,-1.31
2023-01-22T20:56:50.281Z,-1.30
2023-01-22T20:59:47.338Z,-1.22
2023-01-22T21:02:44.108Z,-1.24
2023-01-22T21:05:40.886Z,-1.35
2023-01-22T21:08:38.184Z,-1.31
2023-01-22T21:11:36.782Z,-1.39
2023-01-22T21:14:33.543Z,-1.37
2023-01-22T21:17:31.150Z,-1.38
2023-01-22T21:20:27.905Z,-1.32
2023-01-22T21:23:24.660Z,-1.36
2023-01-22T21:26:24.468Z,-1.29
2023-01-22T21:29:23.534Z,-1.29
2023-01-22T21:32:20.343Z,-1.37
2023-01-22T21:35:17.148Z,-1.33
2023-01-22T21:38:13.892Z,-1.30
2023-01-22T21:41:13.072Z,-1.09
2023-01-22T21:44:33.241Z,-1.15
2023-01-22T21:47:30.018Z,-1.02
2023-01-22T21:50:26.794Z,-1.12
2023-01-22T21:53:23.609Z,-1.08
2023-01-22T21:56:20.354Z,-1.20
2023-01-22T21:59:17.602Z,-1.26
2023-01-22T22:02:15.966Z,-1.33
2023-01-22T22:05:12.799Z,-1.21
2023-01-22T22:08:09.549Z,-1.29
2023-01-22T22:11:06.899Z,-1.13
2023-01-22T22:14:05.731Z,-1.25
2023-01-22T22:17:02.565Z,-1.28
2023-01-22T22:19:59.422Z,-1.31
2023-01-22T22:22:56.199Z,-1.27
2023-01-22T22:25:52.994Z,-1.33
2023-01-22T22:28:49.740Z,-1.31
2023-01-22T22:31:46.528Z,-1.18
2023-01-22T22:34:43.314Z,-1.22
2023-01-22T22:37:40.045Z,-1.23
2023-01-22T22:40:36.796Z,-1.24
2023-01-22T22:43:45.523Z,-1.23
2023-01-22T22:46:42.247Z,-1.19
2023-01-22T22:49:39.081Z,-1.22
2023-01-22T22:52:36.455Z,-1.24
2023-01-22T22:55:33.189Z,-1.24
2023-01-22T22:58:29.963Z,-1.18
2023-01-22T23:01:28.132Z,-1.11
2023-01-22T23:04:24.920Z,-1.25
2023-01-22T23:07:21.704Z,-1.27
2023-01-22T23:10:30.509Z,-1.26
2023-01-22T23:13:27.261Z,-1.25
2023-01-22T23:16:24.032Z,-1.26
2023-01-22T23:19:24.365Z,-1.25
2023-01-22T23:22:21.113Z,-1.28
2023-01-22T23:25:17.862Z,-1.28
2023-01-22T23:28:14.607Z,-1.26
2023-01-22T23:31:17.108Z,-1.23
2023-01-22T23:34:16.491Z,-1.27
2023-01-22T23:37:14.257Z,-1.20
2023-01-22T23:40:11.530Z,-1.30
2023-01-22T23:43:08.309Z,-1.37
2023-01-22T23:46:10.092Z,-1.32
2023-01-22T23:49:06.930Z,-1.25
2023-01-22T23:52:03.823Z,-1.26
2023-01-22T23:55:00.776Z,-1.31
2023-01-22T23:57:57.555Z,-1.26
